Time;durP1;ratioP1;P1;durP2;ratioP2;P2;SDS_P1;SDS_P2;PMS_P1;PMS_P2;Temp;Humidity;BMP_temperature;BMP_pressure;BME280_temperature;BME280_humidity;BME280_pressure;Samples;Min_cycle;Max_cycle;Signal;HPM_P1;HPM_P2
2022/10/05 00:01:45;;;;;;;97.70;12.43;;;;;;;6.53;nan;94536.06;4930954;29;20051;-61
2022/10/05 00:04:15;;;;;;;78.40;11.90;;;;;;;6.57;nan;94536.09;4930405;29;20043;-62
2022/10/05 00:06:49;;;;;;;48.55;10.60;;;;;;;6.51;nan;94526.69;4931647;29;20655;-62
2022/10/05 00:09:19;;;;;;;36.00;9.63;;;;;;;6.40;nan;94532.81;4932215;29;20044;-61
2022/10/05 00:11:48;;;;;;;97.22;10.75;;;;;;;6.45;nan;94534.41;4942972;28;20071;-62
2022/10/05 00:14:19;;;;;;;38.33;9.98;;;;;;;6.51;nan;94527.47;4931856;29;20062;-62
2022/10/05 00:16:47;;;;;;;35.47;9.32;;;;;;;6.50;nan;94525.13;4931537;29;20048;-62
2022/10/05 00:19:22;;;;;;;39.50;11.13;;;;;;;6.60;nan;94525.25;4931905;29;20043;-61
2022/10/05 00:21:49;;;;;;;25.63;10.10;;;;;;;6.58;nan;94521.31;4931335;29;20050;-63
2022/10/05 00:24:19;;;;;;;27.63;8.68;;;;;;;6.63;nan;94523.69;4931674;29;20404;-61
2022/10/05 00:26:46;;;;;;;41.78;10.43;;;;;;;6.55;nan;94517.38;4931069;29;20449;-61
2022/10/05 00:29:22;;;;;;;38.47;9.57;;;;;;;6.43;nan;94508.69;4931870;29;20481;-61
2022/10/05 00:31:49;;;;;;;81.53;9.90;;;;;;;6.32;nan;94514.06;4931485;29;20043;-62
2022/10/05 00:34:16;;;;;;;30.53;9.20;;;;;;;6.43;nan;94508.69;4931938;29;20043;-61
2022/10/05 00:36:44;;;;;;;35.58;9.27;;;;;;;6.44;nan;94511.06;4939759;28;20052;-61
2022/10/05 00:39:11;;;;;;;33.90;8.98;;;;;;;6.36;nan;94501.25;4914582;29;20056;-61
2022/10/05 00:41:57;;;;;;;26.23;8.13;;;;;;;6.44;nan;94502.88;4931094;29;20062;-61
2022/10/05 00:44:52;;;;;;;35.53;8.55;;;;;;;6.35;nan;94500.44;4931681;29;20500;-62
2022/10/05 00:47:53;;;;;;;30.00;9.00;;;;;;;6.29;nan;94491.03;4917776;29;20839;-62
2022/10/05 00:50:51;;;;;;;38.70;9.07;;;;;;;6.32;nan;94490.28;4930616;29;20688;-61
2022/10/05 00:53:42;;;;;;;33.40;9.88;;;;;;;6.45;nan;94492.75;4930793;29;20977;-61
2022/10/05 00:56:15;;;;;;;37.13;10.23;;;;;;;6.55;nan;94494.78;4930889;29;20617;-62
2022/10/05 00:59:00;;;;;;;48.47;9.10;;;;;;;6.53;nan;94494.38;4930817;29;20075;-61
2022/10/05 01:01:53;;;;;;;40.87;8.80;;;;;;;6.38;nan;94488.78;4931251;29;20048;-61
2022/10/05 01:04:29;;;;;;;29.95;8.60;;;;;;;6.43;nan;94482.22;4929737;29;21540;-61
2022/10/05 01:07:31;;;;;;;42.78;9.10;;;;;;;6.35;nan;94481.34;4931025;29;20050;-61
2022/10/05 01:10:22;;;;;;;117.97;11.48;;;;;;;6.31;nan;94483.25;4930867;29;20047;-62
2022/10/05 01:12:58;;;;;;;26.60;8.75;;;;;;;6.40;nan;94477.53;4919358;29;20725;-62
2022/10/05 01:15:59;;;;;;;76.23;9.30;;;;;;;6.20;nan;94477.72;4931190;29;20051;-61
2022/10/05 01:18:43;;;;;;;76.57;8.90;;;;;;;6.10;nan;94483.84;4930519;29;21563;-61
2022/10/05 01:21:10;;;;;;;93.55;9.68;;;;;;;6.14;nan;94475.69;4918777;29;20208;-62
2022/10/05 01:23:52;;;;;;;86.80;9.98;;;;;;;6.11;nan;94492.78;4931327;29;20054;-61
2022/10/05 01:26:54;;;;;;;27.55;9.13;;;;;;;6.29;nan;94482.06;4929939;29;20693;-62
2022/10/05 01:29:20;;;;;;;53.93;8.70;;;;;;;6.16;nan;94481.56;4902873;29;20885;-61
2022/10/05 01:32:44;;;;;;;75.78;9.23;;;;;;;6.21;nan;94486.66;4926091;29;20052;-61
2022/10/05 01:35:41;;;;;;;56.25;7.95;;;;;;;5.97;nan;94496.13;4860792;29;20091;-61
2022/10/05 01:38:26;;;;;;;60.35;8.45;;;;;;;5.96;nan;94486.41;4872338;29;20707;-61
2022/10/05 01:41:14;;;;;;;18.45;8.40;;;;;;;6.08;nan;94488.09;4915821;29;20052;-62
2022/10/05 01:43:50;;;;;;;70.00;8.33;;;;;;;5.86;nan;94484.31;4930592;29;20078;-61
2022/10/05 01:46:20;;;;;;;33.55;8.23;;;;;;;6.07;nan;94487.28;4931128;29;20050;-62
2022/10/05 01:49:21;;;;;;;48.22;9.45;;;;;;;6.02;nan;94493.09;4931236;29;20050;-61
2022/10/05 01:52:16;;;;;;;59.58;9.38;;;;;;;6.01;nan;94486.06;4934139;29;20050;-62
2022/10/05 01:54:57;;;;;;;37.67;9.35;;;;;;;6.04;nan;94481.78;4934182;29;20055;-63
2022/10/05 01:57:27;;;;;;;50.27;9.03;;;;;;;6.11;nan;94479.16;4934414;29;20048;-62
2022/10/05 02:00:08;;;;;;;33.38;8.93;;;;;;;6.11;nan;94479.16;4933958;29;20046;-62
2022/10/05 02:02:41;;;;;;;25.75;8.75;;;;;;;6.11;nan;94476.44;4935288;29;20047;-62
2022/10/05 02:05:07;;;;;;;53.80;9.05;;;;;;;5.88;nan;94479.28;4933778;29;21123;-61
2022/10/05 02:07:40;;;;;;;136.70;10.45;;;;;;;5.56;nan;94475.00;4934314;29;20051;-62
2022/10/05 02:10:23;;;;;;;138.73;11.13;;;;;;;5.66;nan;94465.41;4933283;29;21553;-61
2022/10/05 02:12:57;;;;;;;70.50;9.93;;;;;;;5.89;nan;94464.50;4917125;29;20044;-61
2022/10/05 02:15:50;;;;;;;50.42;9.90;;;;;;;6.05;nan;94462.34;4934257;29;20035;-62
2022/10/05 02:18:22;;;;;;;54.85;19.08;;;;;;;6.15;nan;94463.63;4931034;29;20778;-61
2022/10/05 02:20:53;;;;;;;115.00;47.63;;;;;;;6.14;nan;94460.13;4933541;29;20050;-62
2022/10/05 02:23:24;;;;;;;68.23;12.70;;;;;;;6.17;nan;94459.38;4934101;29;20144;-62
2022/10/05 02:25:53;;;;;;;54.17;11.15;;;;;;;6.17;nan;94453.13;4933476;29;20040;-61
2022/10/05 02:28:48;;;;;;;67.63;9.05;;;;;;;5.86;nan;94448.91;4933964;29;20039;-62
2022/10/05 02:31:28;;;;;;;125.25;9.70;;;;;;;5.67;nan;94444.38;4932695;29;21584;-63
2022/10/05 02:34:19;;;;;;;75.65;9.10;;;;;;;5.79;nan;94447.66;4933386;29;20044;-62
2022/10/05 02:36:53;;;;;;;73.63;9.20;;;;;;;5.42;nan;94444.88;4936122;29;20048;-61
2022/10/05 02:39:29;;;;;;;103.22;9.60;;;;;;;5.47;nan;94446.47;4933943;29;20050;-61
2022/10/05 02:42:14;;;;;;;242.15;12.43;;;;;;;5.35;nan;94447.50;4933298;29;20401;-62
2022/10/05 02:45:05;;;;;;;197.68;13.30;;;;;;;5.41;nan;94454.19;4933414;29;20418;-63
2022/10/05 02:48:09;;;;;;;52.38;10.43;;;;;;;5.50;nan;94457.41;4933849;29;20044;-63
2022/10/05 02:50:43;;;;;;;77.80;10.33;;;;;;;5.66;nan;94451.78;4924044;29;20612;-62
2022/10/05 02:53:24;;;;;;;112.28;10.63;;;;;;;5.63;nan;94454.44;4932589;29;20784;-61
2022/10/05 02:56:33;;;;;;;95.03;22.48;;;;;;;5.75;nan;94454.97;4933136;29;20047;-62
2022/10/05 02:59:38;;;;;;;69.72;10.90;;;;;;;5.78;nan;94458.94;4933144;29;20039;-61
2022/10/05 03:02:17;;;;;;;43.83;9.82;;;;;;;5.87;nan;94453.97;4918841;29;20939;-61
2022/10/05 03:05:11;;;;;;;62.20;9.77;;;;;;;5.83;nan;94447.69;4932813;29;20047;-62
2022/10/05 03:07:47;;;;;;;76.95;10.07;;;;;;;5.62;nan;94442.00;4933259;29;20497;-63
2022/10/05 03:10:44;;;;;;;40.72;9.77;;;;;;;5.67;nan;94450.59;4913327;29;20180;-62
2022/10/05 03:13:24;;;;;;;46.47;10.15;;;;;;;5.58;nan;94448.19;4904764;29;20548;-61
2022/10/05 03:16:05;;;;;;;89.53;12.93;;;;;;;5.66;nan;94446.34;4919657;29;20086;-62
2022/10/05 03:18:41;;;;;;;62.20;11.23;;;;;;;5.70;nan;94447.16;4933141;29;20472;-60
2022/10/05 03:21:27;;;;;;;91.85;11.70;;;;;;;5.59;nan;94446.22;4925002;29;20902;-61
2022/10/05 03:24:15;;;;;;;54.88;10.48;;;;;;;5.58;nan;94444.69;4932394;29;20115;-61
2022/10/05 03:27:06;;;;;;;71.50;10.35;;;;;;;5.43;nan;94435.53;4932079;29;20078;-61
2022/10/05 03:30:01;;;;;;;59.80;10.27;;;;;;;5.58;nan;94440.00;4932898;29;20062;-61
2022/10/05 03:32:53;;;;;;;168.53;12.23;;;;;;;5.39;nan;94438.25;4930333;29;20848;-61
2022/10/05 03:35:28;;;;;;;90.28;10.32;;;;;;;5.36;nan;94433.53;4931439;29;22548;-61
2022/10/05 03:38:17;;;;;;;87.32;10.07;;;;;;;5.20;nan;94435.63;4932244;29;20050;-61
2022/10/05 03:41:05;;;;;;;115.70;11.30;;;;;;;5.14;nan;94435.16;4932032;29;20439;-61
2022/10/05 03:43:50;;;;;;;149.15;11.80;;;;;;;5.27;nan;94432.22;4932621;29;20051;-62
2022/10/05 03:46:44;;;;;;;89.63;10.60;;;;;;;5.18;nan;94433.28;4931714;29;20567;-61
2022/10/05 03:49:26;;;;;;;65.18;10.50;;;;;;;5.05;nan;94436.59;4931630;29;20396;-62
2022/10/05 03:52:21;;;;;;;90.88;11.13;;;;;;;5.07;nan;94447.88;4931991;29;20044;-62
2022/10/05 03:54:56;;;;;;;199.48;15.65;;;;;;;5.02;nan;94448.22;4931899;29;20086;-61
2022/10/05 03:57:28;;;;;;;112.05;11.80;;;;;;;5.00;nan;94456.72;4932414;29;20051;-62
2022/10/05 04:00:21;;;;;;;205.40;13.03;;;;;;;4.93;nan;94468.31;4931545;29;20035;-61
2022/10/05 04:02:54;;;;;;;86.97;11.77;;;;;;;5.23;nan;94461.31;4932169;29;20058;-61
2022/10/05 04:05:28;;;;;;;50.25;12.32;;;;;;;5.22;nan;94459.78;4919553;29;20044;-62
2022/10/05 04:08:10;;;;;;;69.72;11.20;;;;;;;5.35;nan;94461.91;4931650;29;20061;-61
2022/10/05 04:10:40;;;;;;;46.60;10.98;;;;;;;5.33;nan;94453.31;4934163;29;20046;-61
2022/10/05 04:13:21;;;;;;;91.03;10.63;;;;;;;5.10;nan;94449.88;4935621;28;21745;-61
2022/10/05 04:15:56;;;;;;;44.67;9.88;;;;;;;5.13;nan;94452.66;4919661;29;20062;-63
2022/10/05 04:18:35;;;;;;;44.50;9.50;;;;;;;5.13;nan;94451.84;4932004;29;20039;-61
2022/10/05 04:21:18;;;;;;;60.28;9.30;;;;;;;5.03;nan;94453.28;4931628;29;20401;-62
2022/10/05 04:24:03;;;;;;;119.35;10.93;;;;;;;4.83;nan;94457.25;4931499;29;20055;-62
2022/10/05 04:26:44;;;;;;;59.37;9.53;;;;;;;4.92;nan;94452.34;4920013;29;20363;-61
2022/10/05 04:29:25;;;;;;;45.72;9.95;;;;;;;5.01;nan;94447.44;4930786;29;20840;-61
2022/10/05 04:32:07;;;;;;;70.65;11.13;;;;;;;5.02;nan;94440.84;4930171;29;20064;-62
2022/10/05 04:35:00;;;;;;;103.55;14.50;;;;;;;5.01;nan;94439.28;4931523;29;20079;-62
2022/10/05 04:38:08;;;;;;;102.60;12.05;;;;;;;4.92;nan;94436.03;4927093;29;20152;-62
2022/10/05 04:40:40;;;;;;;100.50;20.33;;;;;;;4.70;nan;94432.97;4830794;29;21141;-61
2022/10/05 04:43:34;;;;;;;112.53;24.95;;;;;;;4.70;nan;94432.97;4914943;29;21489;-61
2022/10/05 04:46:19;;;;;;;82.65;13.50;;;;;;;4.52;nan;94435.41;4930794;29;20050;-61
2022/10/05 04:49:00;;;;;;;99.60;14.00;;;;;;;4.48;nan;94423.69;4931009;29;20048;-61
2022/10/05 04:51:51;;;;;;;94.82;11.82;;;;;;;4.53;nan;94428.06;4931407;29;20046;-61
2022/10/05 04:54:43;;;;;;;75.60;9.50;;;;;;;4.46;nan;94425.22;4930600;29;20074;-61
2022/10/05 04:57:16;;;;;;;72.80;10.15;;;;;;;4.49;nan;94417.13;4913625;29;20238;-61
2022/10/05 04:59:52;;;;;;;91.30;10.05;;;;;;;4.41;nan;94423.59;4930971;29;20636;-61
2022/10/05 05:02:46;;;;;;;104.32;9.45;;;;;;;4.42;nan;94421.66;4931491;29;20054;-61
2022/10/05 05:05:25;;;;;;;67.15;11.52;;;;;;;4.54;nan;94410.59;4918032;29;20661;-61
2022/10/05 05:08:25;;;;;;;109.53;11.23;;;;;;;4.55;nan;94423.06;4930534;29;20047;-60
2022/10/05 05:11:11;;;;;;;41.25;11.80;;;;;;;4.72;nan;94414.38;4892461;28;20044;-61
2022/10/05 05:14:07;;;;;;;38.65;11.25;;;;;;;4.85;nan;94423.13;4919343;29;20126;-61
2022/10/05 05:16:39;;;;;;;190.43;14.43;;;;;;;4.65;nan;94429.78;4931009;29;20047;-61
2022/10/05 05:19:18;;;;;;;91.82;14.63;;;;;;;4.75;nan;94431.91;4922455;29;20689;-61
2022/10/05 05:22:06;;;;;;;117.37;13.57;;;;;;;4.59;nan;94426.59;4930537;29;20046;-61
2022/10/05 05:25:09;;;;;;;160.13;13.65;;;;;;;4.73;nan;94426.81;4933567;29;20062;-60
2022/10/05 05:27:55;;;;;;;168.70;13.40;;;;;;;4.76;nan;94423.34;4930444;29;20672;-61
2022/10/05 05:30:30;;;;;;;129.90;13.93;;;;;;;4.84;nan;94426.97;4934195;29;20703;-61
2022/10/05 05:33:28;;;;;;;65.82;12.52;;;;;;;5.02;nan;94429.16;4934788;29;20047;-61
2022/10/05 05:36:17;;;;;;;59.20;11.30;;;;;;;5.10;nan;94422.69;4938520;29;20461;-61
2022/10/05 05:38:57;;;;;;;179.05;14.38;;;;;;;4.84;nan;94429.69;4934390;29;20048;-61
2022/10/05 05:41:30;;;;;;;197.90;15.57;;;;;;;4.79;nan;94435.47;4934635;29;20584;-61
2022/10/05 05:44:39;;;;;;;44.13;12.88;;;;;;;4.96;nan;94440.34;4931076;29;20138;-62
2022/10/05 05:47:22;;;;;;;132.63;16.13;;;;;;;5.00;nan;94443.13;4933326;29;20799;-61
2022/10/05 05:50:15;;;;;;;57.90;12.50;;;;;;;5.06;nan;94433.50;4933796;29;20043;-61
2022/10/05 05:52:48;;;;;;;49.00;12.40;;;;;;;5.17;nan;94447.25;4929249;29;20050;-61
2022/10/05 05:55:31;;;;;;;41.53;11.32;;;;;;;5.25;nan;94459.00;4934293;29;21874;-61
2022/10/05 05:58:13;;;;;;;99.43;13.32;;;;;;;5.20;nan;94455.47;4916531;29;20062;-61
2022/10/05 06:00:57;;;;;;;42.38;11.30;;;;;;;5.37;nan;94458.78;4926265;29;20532;-61
2022/10/05 06:03:39;;;;;;;40.83;11.00;;;;;;;5.39;nan;94459.22;4932190;29;20382;-61
2022/10/05 06:06:12;;;;;;;145.63;13.40;;;;;;;5.19;nan;94464.00;4932708;29;20640;-61
2022/10/05 06:08:43;;;;;;;58.80;10.80;;;;;;;5.31;nan;94466.50;4933956;29;20058;-59
2022/10/05 06:11:18;;;;;;;147.88;16.27;;;;;;;5.07;nan;94470.44;4935573;29;20054;-62
2022/10/05 06:13:46;;;;;;;105.03;20.20;;;;;;;5.10;nan;94472.44;4933703;29;20044;-61
2022/10/05 06:16:23;;;;;;;114.73;16.83;;;;;;;5.23;nan;94466.75;4933955;29;20059;-61
2022/10/05 06:19:01;;;;;;;131.02;13.95;;;;;;;5.31;nan;94471.97;4933491;29;20044;-60
2022/10/05 06:21:53;;;;;;;85.38;12.18;;;;;;;5.41;nan;94475.94;4933890;29;20043;-60
2022/10/05 06:24:30;;;;;;;107.32;12.45;;;;;;;5.57;nan;94479.31;4932419;29;20358;-61
2022/10/05 06:27:18;;;;;;;110.82;14.57;;;;;;;5.83;nan;94493.22;4933174;29;20054;-61
2022/10/05 06:30:12;;;;;;;61.20;13.77;;;;;;;5.87;nan;94481.19;4933316;29;20427;-61
2022/10/05 06:32:48;;;;;;;77.05;13.25;;;;;;;6.04;nan;94489.97;4933547;29;20082;-60
2022/10/05 06:35:33;;;;;;;114.47;13.07;;;;;;;5.71;nan;94486.06;4934079;29;20055;-60
2022/10/05 06:38:15;;;;;;;214.60;13.45;;;;;;;5.30;nan;94491.38;4933281;29;20067;-61
2022/10/05 06:41:14;;;;;;;90.95;10.82;;;;;;;5.53;nan;94486.63;4933309;29;20143;-61
2022/10/05 06:43:52;;;;;;;177.57;11.70;;;;;;;5.76;nan;94497.41;4933373;29;20264;-61
2022/10/05 06:46:34;;;;;;;74.25;9.77;;;;;;;6.10;nan;94493.97;4933562;29;20075;-61
2022/10/05 06:49:22;;;;;;;107.18;11.10;;;;;;;6.04;nan;94500.88;4916156;29;20042;-60
2022/10/05 06:52:07;;;;;;;114.20;11.02;;;;;;;6.37;nan;94494.63;4932763;29;20421;-60
2022/10/05 06:55:00;;;;;;;69.30;9.50;;;;;;;6.93;nan;94490.06;4921757;29;20069;-61
2022/10/05 06:57:29;;;;;;;42.43;9.63;;;;;;;6.97;nan;94486.19;4932248;29;20405;-61
2022/10/05 07:00:03;;;;;;;33.58;9.10;;;;;;;7.92;nan;94483.59;4933014;29;20062;-61
2022/10/05 07:02:54;;;;;;;37.40;8.95;;;;;;;8.40;nan;94488.06;4931889;29;20175;-61
2022/10/05 07:05:33;;;;;;;72.78;10.20;;;;;;;8.28;nan;94488.41;4919456;29;21598;-61
2022/10/05 07:08:11;;;;;;;51.63;9.60;;;;;;;9.06;nan;94479.56;4932617;29;20035;-61
2022/10/05 07:11:02;;;;;;;49.07;8.97;;;;;;;8.90;nan;94485.41;4917926;29;20059;-61
2022/10/05 07:14:06;;;;;;;48.40;8.43;;;;;;;8.45;nan;94492.38;4932445;29;21188;-61
2022/10/05 07:16:51;;;;;;;73.72;8.75;;;;;;;8.69;nan;94486.19;4928207;29;20676;-61
2022/10/05 07:19:24;;;;;;;46.17;9.15;;;;;;;8.69;nan;94493.59;4932312;29;21609;-61
2022/10/05 07:22:23;;;;;;;36.60;9.35;;;;;;;9.50;nan;94489.28;4932738;29;20054;-62
2022/10/05 07:25:09;;;;;;;44.53;10.50;;;;;;;10.52;nan;94499.50;4932342;29;20040;-62
2022/10/05 07:28:03;;;;;;;32.15;9.10;;;;;;;11.11;nan;94500.69;4932725;29;20055;-62
2022/10/05 07:30:39;;;;;;;22.35;8.50;;;;;;;11.53;nan;94505.03;4932083;29;20773;-62
2022/10/05 07:33:19;;;;;;;16.50;9.02;;;;;;;12.95;nan;94502.94;4931981;29;21533;-62
2022/10/05 07:39:28;;;;;;;27.63;10.17;;;;;;;16.65;nan;94495.66;4921475;29;20370;-63
2022/10/05 07:42:40;;;;;;;14.73;8.07;;;;;;;16.56;nan;94501.88;4931661;29;20505;-63
2022/10/05 07:45:28;;;;;;;12.25;8.15;;;;;;;15.64;nan;94502.38;4931315;29;21341;-63
2022/10/05 07:48:01;;;;;;;13.75;8.27;;;;;;;16.46;nan;94502.16;4915092;29;20047;-62
2022/10/05 07:50:34;;;;;;;19.92;9.63;;;;;;;17.12;nan;94495.06;4932426;29;20056;-62
2022/10/05 07:53:08;;;;;;;16.33;8.57;;;;;;;19.47;nan;94497.47;4932111;29;20069;-62
2022/10/05 07:55:42;;;;;;;10.52;7.38;;;;;;;20.79;nan;94498.69;4932471;29;20043;-63
2022/10/05 07:58:37;;;;;;;13.52;8.30;;;;;;;21.66;nan;94495.41;4931442;29;20139;-62
2022/10/05 08:01:23;;;;;;;11.48;7.78;;;;;;;22.24;nan;94508.09;4931409;29;20051;-63
2022/10/05 08:04:13;;;;;;;10.65;7.30;;;;;;;23.60;nan;94493.66;4930361;29;20047;-62
2022/10/05 08:06:47;;;;;;;12.40;7.47;;;;;;;24.03;nan;94485.63;4931811;29;20052;-63
2022/10/05 08:09:52;;;;;;;12.02;8.00;;;;;;;23.91;nan;94485.47;4931819;29;20043;-64
2022/10/05 08:12:39;;;;;;;13.00;8.38;;;;;;;24.37;nan;94489.63;4943164;28;20686;-64
2022/10/05 08:15:19;;;;;;;11.18;7.45;;;;;;;25.45;nan;94486.56;4914456;29;20580;-63
2022/10/05 08:18:10;;;;;;;14.82;8.27;;;;;;;25.70;nan;94495.44;4931619;29;20047;-63
2022/10/05 08:20:45;;;;;;;13.13;7.83;;;;;;;24.58;nan;94498.78;4932007;29;20388;-63
2022/10/05 08:23:27;;;;;;;10.98;7.20;;;;;;;24.62;nan;94499.34;4931042;29;21638;-63
2022/10/05 08:26:21;;;;;;;11.05;7.68;;;;;;;23.18;nan;94498.41;4931025;29;20387;-63
2022/10/05 08:29:16;;;;;;;11.40;7.35;;;;;;;23.26;nan;94493.16;4892540;29;20054;-63
2022/10/05 08:31:47;;;;;;;9.93;6.78;;;;;;;23.65;nan;94488.16;4931247;29;20043;-63
2022/10/05 08:34:34;;;;;;;9.27;6.90;;;;;;;22.64;nan;94494.88;4919228;29;20425;-63
2022/10/05 08:37:16;;;;;;;9.13;6.90;;;;;;;25.31;nan;94487.50;4940126;28;20043;-63
2022/10/05 08:40:03;;;;;;;12.20;6.53;;;;;;;26.01;nan;94483.38;4930948;29;20047;-64
2022/10/05 08:42:57;;;;;;;9.57;6.40;;;;;;;28.37;nan;94482.03;4931626;29;20055;-63
2022/10/05 08:45:48;;;;;;;9.23;6.53;;;;;;;28.07;nan;94479.06;4930729;29;20740;-63
2022/10/05 08:48:43;;;;;;;11.30;6.40;;;;;;;28.47;nan;94482.50;4930844;29;20679;-63
2022/10/05 08:51:32;;;;;;;11.82;6.20;;;;;;;26.82;nan;94488.81;4930610;29;21455;-63
2022/10/05 08:54:16;;;;;;;7.68;5.65;;;;;;;26.43;nan;94481.75;4930862;29;20047;-63
2022/10/05 08:57:20;;;;;;;9.45;5.55;;;;;;;25.91;nan;94487.66;4930936;29;20070;-63
2022/10/05 08:59:56;;;;;;;9.93;5.85;;;;;;;27.06;nan;94480.66;4930159;29;20269;-64
2022/10/05 09:02:44;;;;;;;7.90;5.60;;;;;;;27.15;nan;94476.81;4931468;29;20047;-64
2022/10/05 09:08:04;;;;;;;12.80;6.03;;;;;;;27.47;nan;94480.19;2990764;23;20062;31
2022/10/05 09:10:59;;;;;;;7.78;4.80;;;;;;;28.27;nan;94478.75;4864285;29;20798;-58
2022/10/05 09:13:45;;;;;;;8.60;4.57;;;;;;;28.06;nan;94480.34;4862732;29;20113;-57
2022/10/05 09:16:54;;;;;;;12.87;6.13;;;;;;;28.33;nan;94478.69;4874593;29;20194;-58
2022/10/05 09:19:45;;;;;;;7.63;4.00;;;;;;;28.62;nan;94488.63;4855387;29;20379;-59
2022/10/05 09:22:14;;;;;;;15.55;5.25;;;;;;;27.95;nan;94483.19;4848962;29;20930;-60
2022/10/05 09:25:02;;;;;;;25.38;7.40;;;;;;;27.74;nan;94482.72;4855187;29;20046;-59
2022/10/05 09:27:35;;;;;;;17.23;5.40;;;;;;;27.86;nan;94476.53;4861147;29;20053;-58
2022/10/05 09:30:22;;;;;;;4.53;2.40;;;;;;;27.05;nan;94484.75;4856924;29;20447;-57
2022/10/05 09:32:59;;;;;;;8.50;3.30;;;;;;;26.65;nan;94480.34;4856879;29;20060;-58
2022/10/05 09:35:28;;;;;;;7.32;3.40;;;;;;;26.65;nan;94477.50;4857410;29;20049;-57
2022/10/05 09:38:01;;;;;;;8.25;4.03;;;;;;;26.75;nan;94470.38;4856661;29;20052;-58
2022/10/05 09:41:05;;;;;;;6.15;2.50;;;;;;;25.35;nan;94467.59;4857416;29;20120;-58
2022/10/05 09:43:39;;;;;;;12.07;5.67;;;;;;;26.79;nan;94470.13;4860174;29;20685;-57
2022/10/05 09:46:51;;;;;;;4.22;2.72;;;;;;;28.25;nan;94460.78;4856377;29;22601;-57
2022/10/05 09:49:31;;;;;;;7.75;4.47;;;;;;;26.89;nan;94469.38;4837014;29;20737;-58
2022/10/05 09:52:16;;;;;;;3.58;2.38;;;;;;;28.23;nan;94464.13;4856010;29;20061;-57
2022/10/05 09:55:24;;;;;;;6.00;3.50;;;;;;;28.68;nan;94455.47;4856333;29;20049;-57
2022/10/05 09:58:11;;;;;;;10.80;5.90;;;;;;;30.17;nan;94450.88;4843786;29;20057;-57
2022/10/05 10:00:41;;;;;;;4.93;2.92;;;;;;;29.70;nan;94445.44;4857018;29;20053;-58
2022/10/05 10:03:26;;;;;;;3.95;2.33;;;;;;;28.81;nan;94449.22;4856193;29;20845;-58
2022/10/05 10:05:59;;;;;;;6.03;2.30;;;;;;;29.36;nan;94438.06;4856013;29;20052;-58
2022/10/05 10:08:44;;;;;;;3.72;2.25;;;;;;;29.06;nan;94447.25;4859075;29;20057;-58
2022/10/05 10:11:40;;;;;;;5.27;3.20;;;;;;;28.43;nan;94442.47;4877177;29;20696;-58
2022/10/05 10:14:44;;;;;;;4.00;2.55;;;;;;;29.26;nan;94446.09;4878040;29;20397;-59
2022/10/05 10:17:14;;;;;;;4.25;2.13;;;;;;;28.17;nan;94445.66;4881415;29;21766;-58
2022/10/05 10:20:14;;;;;;;3.80;2.30;;;;;;;27.61;nan;94436.06;4878065;29;20052;-59
2022/10/05 10:23:13;;;;;;;4.00;2.50;;;;;;;27.86;nan;94439.09;4877192;29;20068;-59
2022/10/05 10:26:10;;;;;;;4.50;2.30;;;;;;;27.61;nan;94440.97;4867368;29;20061;-59
2022/10/05 10:28:42;;;;;;;3.45;2.20;;;;;;;26.51;nan;94445.47;4878528;29;20045;-59
2022/10/05 10:31:57;;;;;;;3.78;2.40;;;;;;;27.26;nan;94447.91;4877341;29;20804;-60
2022/10/05 10:34:42;;;;;;;3.50;2.30;;;;;;;27.73;nan;94441.69;4838505;29;20133;-62
2022/10/05 10:37:28;;;;;;;3.40;2.42;;;;;;;27.01;nan;94441.97;4866910;29;20860;-60
2022/10/05 10:40:36;;;;;;;4.10;2.40;;;;;;;28.56;nan;94442.69;4877949;29;20502;-59
2022/10/05 10:43:32;;;;;;;3.22;2.30;;;;;;;28.16;nan;94444.91;4878077;29;20056;-61
2022/10/05 10:46:19;;;;;;;3.92;2.50;;;;;;;26.68;nan;94451.94;4875360;29;22633;-60
2022/10/05 10:48:56;;;;;;;3.72;2.30;;;;;;;26.72;nan;94448.84;4876458;29;20116;-59
2022/10/05 10:51:43;;;;;;;4.00;2.50;;;;;;;26.13;nan;94447.63;4878605;29;20049;-61
2022/10/05 10:54:13;;;;;;;5.43;3.50;;;;;;;27.53;nan;94448.38;4848178;29;21737;-61
2022/10/05 10:57:02;;;;;;;3.38;2.40;;;;;;;27.16;nan;94452.22;4877465;29;20041;-61
2022/10/05 11:00:18;;;;;;;6.57;2.90;;;;;;;28.22;nan;94442.06;4877418;29;20060;-59
2022/10/05 11:03:20;;;;;;;4.75;2.58;;;;;;;26.51;nan;94449.03;4876865;29;20697;-59
2022/10/05 11:06:22;;;;;;;3.97;2.63;;;;;;;27.33;nan;94435.34;4876183;29;20043;-60
2022/10/05 11:09:24;;;;;;;4.67;2.70;;;;;;;26.64;nan;94440.16;4875941;29;20063;-59
2022/10/05 11:12:23;;;;;;;4.15;2.63;;;;;;;26.98;nan;94440.16;4877153;29;20052;-58
2022/10/05 11:15:14;;;;;;;3.63;2.85;;;;;;;26.90;nan;94442.75;4877296;29;20545;-59
2022/10/05 11:17:47;;;;;;;6.82;3.08;;;;;;;26.04;nan;94431.00;4880447;29;20055;-59
2022/10/05 11:20:32;;;;;;;4.18;3.22;;;;;;;24.94;nan;94434.06;4876010;29;20068;-59
2022/10/05 11:23:36;;;;;;;5.30;3.40;;;;;;;23.88;nan;94430.38;4876072;29;20113;-59
2022/10/05 11:26:31;;;;;;;3.97;3.15;;;;;;;23.73;nan;94433.22;4876251;29;20815;-58
2022/10/05 11:29:19;;;;;;;4.80;3.50;;;;;;;23.50;nan;94428.56;4876356;29;20056;-62
2022/10/05 11:32:01;;;;;;;4.53;3.40;;;;;;;23.62;nan;94429.50;4876471;29;20036;-58
2022/10/05 11:35:05;;;;;;;6.32;3.83;;;;;;;21.30;nan;94439.25;4877225;29;20553;-61
2022/10/05 11:37:44;;;;;;;6.50;3.83;;;;;;;21.18;nan;94437.47;4876018;29;20857;-59
2022/10/05 11:40:35;;;;;;;6.05;3.70;;;;;;;20.85;nan;94429.84;4875887;29;20783;-59
2022/10/05 11:43:37;;;;;;;4.88;3.55;;;;;;;20.87;nan;94426.59;4876313;29;20047;-57
2022/10/05 11:46:09;;;;;;;5.38;3.65;;;;;;;20.50;nan;94430.25;4857393;29;20081;-61
2022/10/05 11:48:54;;;;;;;4.80;3.40;;;;;;;20.53;nan;94434.88;4876614;29;20052;-60
2022/10/05 11:51:44;;;;;;;6.00;3.70;;;;;;;20.25;nan;94422.97;4870030;29;20433;-58
2022/10/05 11:54:28;;;;;;;5.57;3.70;;;;;;;20.12;nan;94425.16;4875585;29;20661;-58
2022/10/05 11:57:04;;;;;;;5.22;3.83;;;;;;;20.08;nan;94432.91;4876190;29;20115;-59
2022/10/05 11:59:42;;;;;;;6.05;3.90;;;;;;;20.41;nan;94419.09;4876686;29;20114;-60
2022/10/05 12:02:46;;;;;;;7.07;4.05;;;;;;;20.24;nan;94417.88;4874433;29;20660;-59
2022/10/05 12:05:28;;;;;;;8.57;4.00;;;;;;;20.27;nan;94423.28;4858747;29;20639;-60
2022/10/05 12:07:58;;;;;;;5.57;4.03;;;;;;;20.51;nan;94420.63;4875704;29;20059;-59
2022/10/05 12:10:56;;;;;;;7.07;3.95;;;;;;;20.11;nan;94418.81;4876204;29;20455;-60
2022/10/05 12:13:38;;;;;;;5.70;3.70;;;;;;;20.13;nan;94410.00;4875124;29;21677;-59
2022/10/05 12:16:13;;;;;;;5.25;4.07;;;;;;;19.83;nan;94404.13;4875603;29;20045;-59
2022/10/05 12:18:49;;;;;;;6.40;4.07;;;;;;;19.76;nan;94415.59;4886984;29;20071;-58
2022/10/05 12:21:27;;;;;;;7.65;3.90;;;;;;;19.58;nan;94407.97;4876203;29;20045;-59
2022/10/05 12:24:00;;;;;;;5.18;3.80;;;;;;;19.84;nan;94416.03;4875813;29;20052;-62
2022/10/05 12:26:56;;;;;;;6.78;4.00;;;;;;;20.08;nan;94408.63;4876282;29;20071;-59
2022/10/05 12:29:45;;;;;;;6.22;3.90;;;;;;;20.14;nan;94417.09;4840419;29;20380;-59
2022/10/05 12:32:20;;;;;;;5.70;3.90;;;;;;;20.05;nan;94411.56;4875052;29;21758;-57
2022/10/05 12:35:15;;;;;;;5.15;3.50;;;;;;;19.66;nan;94428.69;4874098;29;20045;-58
2022/10/05 12:38:23;;;;;;;7.78;3.80;;;;;;;19.71;nan;94408.59;4875535;29;20048;-60
2022/10/05 12:41:30;;;;;;;5.90;3.97;;;;;;;19.86;nan;94406.00;4872539;29;20052;-59
2022/10/05 12:44:04;;;;;;;6.55;3.63;;;;;;;19.83;nan;94412.47;4844498;29;20487;-58
2022/10/05 12:46:48;;;;;;;6.47;4.10;;;;;;;19.76;nan;94407.22;4876226;29;20440;-58
2022/10/05 12:49:34;;;;;;;5.32;3.83;;;;;;;19.98;nan;94407.06;4875335;29;20189;-59
2022/10/05 12:52:12;;;;;;;5.28;3.88;;;;;;;19.88;nan;94403.53;4875790;29;20045;-58
2022/10/05 12:54:53;;;;;;;5.55;4.00;;;;;;;20.18;nan;94401.00;4875962;29;20049;-58
2022/10/05 12:57:40;;;;;;;6.00;3.58;;;;;;;20.65;nan;94405.28;4876353;29;20044;-59
2022/10/05 13:00:12;;;;;;;5.33;3.60;;;;;;;20.60;nan;94405.91;4874893;29;21164;-59
2022/10/05 13:02:44;;;;;;;5.68;3.70;;;;;;;20.52;nan;94401.88;4875635;29;20049;-58
2022/10/05 13:05:25;;;;;;;4.93;3.47;;;;;;;20.43;nan;94399.13;4874871;29;20366;-61
2022/10/05 13:08:08;;;;;;;7.57;3.55;;;;;;;20.70;nan;94401.06;4875372;29;20142;-59
2022/10/05 13:11:00;;;;;;;5.20;3.60;;;;;;;20.81;nan;94395.00;4876054;29;20044;-59
2022/10/05 13:13:58;;;;;;;5.30;3.43;;;;;;;21.01;nan;94392.44;4864887;29;20096;-58
2022/10/05 13:16:53;;;;;;;8.07;3.30;;;;;;;21.07;nan;94398.16;4874808;29;20826;-58